KMLC

Details ICAO KMLC (MLC)
Name MC ALESTER RGNL
Region United States
Timezone America/Chicago (UTC-6.0)
Plans Departing 5
Arriving 3
Stats Elevation 770 ft / 235 m (AMSL)
Location 34.882400° -95.783473°
Runways 1
Magnetic Variation 2.623° E
Sunrise 2017-12-18 13:26:50 UTC / 2017-12-18 07:26:50 Local
Sunset 2017-12-18 23:15:37 UTC / 2017-12-18 17:15:37 Local
Advertisement - Login to hide

Runways

ID Width Length Bearing (true) Bearing (mag) Surface Threshold Offset Overrun Length
01 100 ft / 30 m 5,613 ft / 1,711 m 20.29° 17.67° Concrete 0 ft / 0 m 0 ft / 0 m
19 100 ft / 30 m 5,613 ft / 1,711 m 200.29° 197.67° Concrete 0 ft / 0 m 0 ft / 0 m

Approach Navaids

Runway Type Ident Frequency Range Bearing (true) Bearing (mag) Slope Elevation
01 Localiser IMLC 108.30 MHz 18 nm / 33 km 20.29° 17.67° - 770 ft / 235 m (AMSL)

Map

Weather


0- 5 10 15 20 25 30 35+ Temperature / ° C

Clouds and Precipitation
Forecast for 2017-12-18 12:00 UTC. Updated 2 hours ago

Ground ~20,000 ft ~40,000 ft Winds

METAR

KMLC 180853Z AUTO 23003KT 5SM BR OVC013 08/07 A3015 RMK AO2 SLP211 T00780067 53007

TAF

KMLC 180531Z 1806/1906 18003KT 5SM BR SCT007 OVC015 FM180900 VRB02KT 3SM BR BKN015 TEMPO 1811/1815 1/4SM FG OVC003 FM181500 19003KT 5SM BR OVC012 FM181700 19006KT P6SM SCT020 FM190200 16004KT P6SM BKN015

Frequencies

Recorded 135.12 MHz ASOS
Unicom 122.95 MHz CTAF/UNICOM
Warning: Do not use this data for real-world aviation or navigation. No guarantee of current accuracy is given.